LTBS Airport Information

Runway Information
Runway 01 Length 9842 ft width 148 ft
Elevation 10 ft Threshold 0 ft Heading 15
Runway 19 Length 9842 ft Width 148 ft
Elevation 20 ft Threshold 0 ft Heading 195
Airport Frequencies
Type APP Name APP Frequency 119.225 MHZ
Type ATIS Name ATIS Frequency 127.35 MHZ
Type GND Name GND Frequency 121.9 MHZ
Type TWR Name TWR Frequency 118.5 MHZ
Airport Navaids
Type TACAN Name Dalaman Frequency 115300 KHZ
Type VOR-DME Name Dalaman Frequency 114700 KHZ
Type NDB Name Dalaman Frequency 346 KHZ
Airport Weather Information & NOTAM
ADDS - METARS form results

(2006 UTC 22 July 2018)
 
METAR text: LTBS 221950Z 08008KT CAVOK 29/12 Q1006 NOSIG RMK RWY19 04004KT
Conditions at: LTBS (DALAMAN (COMMUNE, TR) observed 1950 UTC 22 July 2018
Temperature: 29.0°C (84°F)
Dewpoint: 12.0°C (54°F) [RH = 35%]
Pressure (altimeter): 29.70 inches Hg (1006.0 mb)
Winds: from the E (80 degrees) at 9 MPH (8 knots; 4.2 m/s)
Visibility: 6 or more miles (10+ km)
Ceiling: ceiling and visibility are OK
Clouds: unknown
Weather: no significant weather observed at this time

METAR text: LTBS 221920Z 09007KT CAVOK 29/13 Q1006 NOSIG RMK RWY19 04005KT
Conditions at: LTBS (DALAMAN (COMMUNE, TR) observed 1920 UTC 22 July 2018
Temperature: 29.0°C (84°F)
Dewpoint: 13.0°C (55°F) [RH = 37%]
Pressure (altimeter): 29.70 inches Hg (1006.0 mb)
Winds: from the E (90 degrees) at 8 MPH (7 knots; 3.6 m/s)
Visibility: 6 or more miles (10+ km)
Ceiling: ceiling and visibility are OK
Clouds: unknown
Weather: no significant weather observed at this time